createdAt,value
2023-02-19T02:50:34.208Z,26
2023-02-19T03:33:34.204Z,18
2023-02-19T03:40:34.208Z,16
2023-02-19T07:06:34.261Z,14
2023-02-19T10:18:40.886Z,6
2023-02-19T12:28:34.376Z,4
2023-02-19T12:31:34.383Z,6
2023-02-19T15:27:34.426Z,8
2023-02-19T15:44:34.415Z,10
2023-02-19T15:45:34.415Z,8
2023-02-19T15:46:34.453Z,7
2023-02-19T15:47:34.420Z,7
2023-02-19T15:48:34.455Z,9
2023-02-19T15:49:34.418Z,6
2023-02-19T15:50:34.416Z,8
2023-02-19T15:51:34.417Z,5
2023-02-19T15:52:34.420Z,7
2023-02-19T15:53:34.447Z,9
2023-02-19T15:55:34.425Z,8
2023-02-19T15:56:34.433Z,9
2023-02-19T15:57:34.423Z,9
2023-02-19T15:58:34.425Z,7
2023-02-19T15:59:34.443Z,7
2023-02-19T16:00:34.532Z,8
2023-02-19T16:01:34.492Z,7
2023-02-19T16:02:34.458Z,8
2023-02-19T16:03:34.445Z,9
2023-02-19T16:04:34.459Z,6
2023-02-19T16:06:34.436Z,10
2023-02-19T16:07:34.442Z,6
2023-02-19T16:08:34.456Z,7
2023-02-19T16:10:34.439Z,7
2023-02-19T16:11:34.441Z,5
2023-02-19T16:12:34.453Z,4
2023-02-19T16:13:34.448Z,9
2023-02-19T16:14:34.426Z,6
2023-02-19T16:15:34.454Z,4
2023-02-19T16:16:34.519Z,5
2023-02-19T16:17:34.438Z,6
2023-02-19T16:18:34.445Z,4
2023-02-19T16:19:34.813Z,5
2023-02-19T16:20:34.428Z,5
2023-02-19T16:21:34.429Z,5
2023-02-19T16:22:34.423Z,4
2023-02-19T16:23:34.433Z,4
2023-02-19T16:24:34.434Z,5
2023-02-19T16:25:34.442Z,5
2023-02-19T16:26:34.433Z,4
2023-02-19T16:27:34.443Z,4
2023-02-19T16:28:34.435Z,4
2023-02-19T16:29:34.421Z,5
2023-02-19T16:30:34.712Z,5
2023-02-19T16:31:34.633Z,7
2023-02-19T16:33:34.447Z,4
2023-02-19T16:34:34.462Z,5
2023-02-19T16:35:34.445Z,6
2023-02-19T16:36:34.448Z,5
2023-02-19T16:38:34.425Z,5
2023-02-19T16:39:34.429Z,5
2023-02-19T16:40:34.450Z,5
2023-02-19T16:41:34.433Z,6
2023-02-19T16:42:34.438Z,4
2023-02-19T16:43:34.450Z,4
2023-02-19T16:44:34.559Z,6
2023-02-19T16:45:34.698Z,5
2023-02-19T16:46:34.448Z,6
2023-02-19T16:47:34.452Z,4
2023-02-19T17:01:34.444Z,7
2023-02-19T17:02:34.474Z,5
2023-02-19T17:53:34.469Z,11
2023-02-19T17:54:34.474Z,8
2023-02-19T17:55:34.479Z,10
2023-02-19T18:33:34.460Z,6
2023-02-19T18:34:34.506Z,4
2023-02-19T18:36:34.473Z,5
2023-02-19T18:37:34.468Z,6
2023-02-19T18:38:34.455Z,5
2023-02-19T18:39:40.925Z,5
2023-02-19T18:41:34.514Z,3
2023-02-19T18:42:34.475Z,4
2023-02-19T18:43:34.461Z,4
2023-02-19T18:44:34.461Z,4
2023-02-19T18:46:34.504Z,4
2023-02-19T18:47:34.458Z,4
2023-02-19T18:48:34.484Z,3
2023-02-19T18:49:34.475Z,3
2023-02-19T18:51:34.484Z,5
2023-02-19T18:52:34.471Z,4
2023-02-19T18:53:34.485Z,5
2023-02-19T18:54:34.457Z,4
2023-02-19T18:55:34.474Z,5
2023-02-19T18:56:34.467Z,5
2023-02-19T18:57:34.453Z,4
2023-02-19T18:58:34.469Z,6
2023-02-19T18:59:34.465Z,4
2023-02-19T19:00:34.473Z,5
2023-02-19T19:01:34.536Z,6
2023-02-19T20:48:34.504Z,10
2023-02-19T21:27:34.509Z,11
